createdAt,value
2023-01-19T05:01:19.013Z,24.62
2023-01-19T05:03:45.989Z,24.64
2023-01-19T05:06:12.781Z,24.76
2023-01-19T05:08:41.256Z,24.60
2023-01-19T05:11:08.292Z,24.03
2023-01-19T05:13:35.440Z,24.65
2023-01-19T05:16:02.497Z,24.75
2023-01-19T05:18:36.721Z,24.48
2023-01-19T05:21:04.570Z,24.39
2023-01-19T05:23:33.032Z,24.51
2023-01-19T05:26:03.269Z,24.80
2023-01-19T05:28:30.165Z,24.55
2023-01-19T05:30:56.997Z,24.73
2023-01-19T05:33:24.863Z,24.73
2023-01-19T05:35:52.429Z,24.83
2023-01-19T05:38:29.309Z,24.69
2023-01-19T05:41:00.922Z,24.41
2023-01-19T05:43:27.945Z,24.71
2023-01-19T05:45:55.721Z,24.13
2023-01-19T05:48:22.425Z,24.45
2023-01-19T05:50:49.649Z,24.44
2023-01-19T05:53:17.034Z,24.26
2023-01-19T05:55:45.473Z,24.70
2023-01-19T05:58:13.503Z,24.81
2023-01-19T06:00:40.262Z,24.70
2023-01-19T06:03:07.090Z,24.75
2023-01-19T06:05:38.007Z,24.82
2023-01-19T06:08:05.498Z,24.63
2023-01-19T06:10:32.870Z,24.45
2023-01-19T06:12:59.876Z,24.84
2023-01-19T06:15:26.796Z,24.78
2023-01-19T06:17:53.891Z,24.84
2023-01-19T06:20:21.131Z,24.78
2023-01-19T06:22:48.088Z,24.85
2023-01-19T06:25:15.112Z,24.61
2023-01-19T06:27:45.322Z,24.77
2023-01-19T06:30:12.895Z,24.63
2023-01-19T06:32:40.470Z,24.32
2023-01-19T06:35:08.657Z,24.90
2023-01-19T06:37:36.442Z,24.88
2023-01-19T06:40:03.682Z,24.84
2023-01-19T06:42:30.699Z,24.89
2023-01-19T06:44:57.645Z,24.76
2023-01-19T06:47:24.338Z,24.84
2023-01-19T06:49:53.914Z,24.91
2023-01-19T06:52:20.746Z,24.88
2023-01-19T06:54:47.612Z,24.82
2023-01-19T06:57:16.782Z,24.88
2023-01-19T06:59:44.587Z,24.91
2023-01-19T07:02:26.105Z,24.72
2023-01-19T07:04:56.541Z,24.87
2023-01-19T07:07:24.202Z,24.93
2023-01-19T07:09:53.766Z,24.93
2023-01-19T07:12:22.933Z,24.54
2023-01-19T07:14:51.421Z,24.89
2023-01-19T07:17:18.325Z,24.84
2023-01-19T07:19:45.773Z,24.90
2023-01-19T07:22:13.132Z,24.93
2023-01-19T07:24:39.779Z,24.60
2023-01-19T07:27:06.486Z,24.64
2023-01-19T07:29:33.252Z,24.59
2023-01-19T07:32:01.476Z,24.48
2023-01-19T07:34:28.185Z,24.73
2023-01-19T07:36:56.104Z,24.54
2023-01-19T07:39:23.532Z,24.72
2023-01-19T07:41:50.283Z,24.92
2023-01-19T07:44:17.038Z,24.83
2023-01-19T07:46:45.739Z,24.83
2023-01-19T07:49:13.527Z,24.91
2023-01-19T07:51:40.173Z,24.68
2023-01-19T07:54:09.940Z,24.75
2023-01-19T07:56:36.615Z,24.87
2023-01-19T07:59:04.123Z,24.64
2023-01-19T08:01:32.573Z,24.49
2023-01-19T08:04:00.301Z,24.81
2023-01-19T08:06:30.254Z,24.85
2023-01-19T08:08:56.980Z,24.31
2023-01-19T08:11:23.912Z,24.60
2023-01-19T08:13:51.287Z,24.87
2023-01-19T08:16:18.154Z,24.85
2023-01-19T08:18:50.116Z,24.86
2023-01-19T08:21:17.610Z,24.41
2023-01-19T08:23:45.977Z,24.71
2023-01-19T08:26:28.319Z,24.92
2023-01-19T08:28:57.502Z,24.77
2023-01-19T08:31:25.014Z,24.77
2023-01-19T08:33:52.152Z,24.93
2023-01-19T08:36:22.627Z,24.23
2023-01-19T08:38:50.053Z,24.79
2023-01-19T08:41:17.411Z,24.80
2023-01-19T08:43:47.827Z,24.97
2023-01-19T08:46:18.738Z,24.84
2023-01-19T08:48:46.048Z,24.87
2023-01-19T08:51:12.951Z,24.87
2023-01-19T08:53:39.920Z,24.94
2023-01-19T08:56:12.334Z,24.65
2023-01-19T08:58:43.339Z,24.72
2023-01-19T09:01:10.909Z,24.88
2023-01-19T09:03:37.608Z,24.78
2023-01-19T09:06:08.031Z,24.60
2023-01-19T09:08:35.013Z,24.87
2023-01-19T09:11:02.138Z,24.80
2023-01-19T09:13:28.890Z,24.63
2023-01-19T09:15:55.735Z,24.93
2023-01-19T09:18:22.569Z,24.72
2023-01-19T09:20:49.853Z,24.83
2023-01-19T09:23:19.288Z,24.68
2023-01-19T09:25:51.442Z,24.89
2023-01-19T09:28:18.216Z,24.97
2023-01-19T09:30:45.164Z,24.67
2023-01-19T09:33:16.271Z,25.03
2023-01-19T09:35:43.321Z,24.74
2023-01-19T09:38:10.554Z,25.00
2023-01-19T09:40:58.315Z,25.01
2023-01-19T09:43:34.102Z,25.03
2023-01-19T09:46:02.690Z,24.96
2023-01-19T09:48:51.516Z,24.97
2023-01-19T09:51:19.623Z,24.92
2023-01-19T09:53:53.442Z,24.99
2023-01-19T09:56:20.459Z,24.46
2023-01-19T09:58:48.830Z,24.83
2023-01-19T10:01:40.100Z,24.97
2023-01-19T10:04:22.335Z,24.99
2023-01-19T10:06:49.479Z,24.70
2023-01-19T10:09:47.804Z,24.88
2023-01-19T10:12:20.408Z,24.95
2023-01-19T10:14:53.532Z,24.99
2023-01-19T10:17:33.151Z,24.47
2023-01-19T10:19:59.830Z,24.71
2023-01-19T10:22:27.705Z,24.52
2023-01-19T10:24:59.527Z,24.46
2023-01-19T10:27:31.478Z,24.56
2023-01-19T10:30:00.840Z,24.73
2023-01-19T10:32:33.373Z,24.85
2023-01-19T10:35:01.175Z,24.82
2023-01-19T10:37:27.825Z,24.97
2023-01-19T10:40:15.654Z,24.86
2023-01-19T10:42:42.387Z,24.80
2023-01-19T10:45:23.073Z,24.92
2023-01-19T10:47:50.524Z,24.91
2023-01-19T10:50:42.468Z,25.07
2023-01-19T10:53:20.948Z,24.82
2023-01-19T10:55:48.056Z,25.11
2023-01-19T10:58:30.534Z,25.02
2023-01-19T11:00:57.708Z,25.13
2023-01-19T11:03:28.120Z,24.78
2023-01-19T11:06:16.582Z,24.93
2023-01-19T11:08:45.798Z,24.96
2023-01-19T11:11:13.568Z,24.36
2023-01-19T11:13:42.257Z,24.78
2023-01-19T11:16:25.692Z,25.11
2023-01-19T11:18:53.069Z,25.02
2023-01-19T11:21:21.986Z,24.53
2023-01-19T11:23:51.185Z,25.16
2023-01-19T11:26:31.639Z,25.18
2023-01-19T11:28:59.780Z,25.14
2023-01-19T11:31:51.638Z,25.18
2023-01-19T11:34:38.618Z,25.10
2023-01-19T11:37:20.888Z,25.30
2023-01-19T11:39:49.424Z,25.03
2023-01-19T11:42:16.211Z,25.16
2023-01-19T11:45:16.177Z,24.82
2023-01-19T11:47:56.807Z,25.24
2023-01-19T11:50:25.171Z,25.24
2023-01-19T11:53:06.980Z,25.25
2023-01-19T11:55:40.146Z,25.19
2023-01-19T11:58:07.406Z,25.31
2023-01-19T12:00:36.149Z,25.18
2023-01-19T12:03:26.134Z,25.19
2023-01-19T12:05:55.094Z,25.25
2023-01-19T12:08:27.057Z,25.30
2023-01-19T12:10:54.560Z,25.17
2023-01-19T12:13:26.398Z,25.08
2023-01-19T12:15:59.869Z,25.36
2023-01-19T12:18:33.541Z,25.15
2023-01-19T12:21:02.864Z,25.17
2023-01-19T12:23:52.065Z,25.30
2023-01-19T12:26:30.707Z,25.34
2023-01-19T12:29:01.659Z,25.25
2023-01-19T12:31:29.311Z,25.19
2023-01-19T12:33:58.824Z,25.15
2023-01-19T12:36:33.302Z,25.32
2023-01-19T12:39:20.653Z,25.03
2023-01-19T12:41:48.312Z,24.44
2023-01-19T12:44:20.599Z,24.27
2023-01-19T12:46:52.198Z,23.98
2023-01-19T12:49:30.489Z,23.67
2023-01-19T12:52:28.168Z,23.83
2023-01-19T12:54:54.869Z,23.91
2023-01-19T12:57:34.284Z,23.76
2023-01-19T13:00:22.159Z,24.14
2023-01-19T13:02:50.302Z,24.21
2023-01-19T13:05:33.002Z,23.99
2023-01-19T13:08:03.271Z,24.39
2023-01-19T13:11:05.677Z,24.48
2023-01-19T13:13:46.397Z,24.47
2023-01-19T13:16:19.243Z,24.58
2023-01-19T13:18:55.229Z,24.72
2023-01-19T13:21:36.410Z,24.60
2023-01-19T13:24:09.298Z,24.73
2023-01-19T13:27:14.954Z,24.48
2023-01-19T13:29:42.069Z,24.48
2023-01-19T13:32:17.768Z,24.55
2023-01-19T13:34:46.593Z,24.81
2023-01-19T13:37:16.652Z,24.61
2023-01-19T13:39:46.319Z,24.71
2023-01-19T13:42:40.093Z,24.92
2023-01-19T13:45:38.012Z,25.04
2023-01-19T13:48:08.768Z,24.96
2023-01-19T13:50:37.435Z,25.03
2023-01-19T13:53:17.827Z,25.15
2023-01-19T13:55:45.062Z,24.85
2023-01-19T13:58:22.502Z,25.25
2023-01-19T14:00:50.350Z,25.27
2023-01-19T14:03:21.398Z,24.98
2023-01-19T14:05:50.578Z,25.09
2023-01-19T14:08:19.963Z,25.18
2023-01-19T14:11:03.610Z,25.52
2023-01-19T14:13:34.673Z,25.54
2023-01-19T14:16:07.649Z,25.50
2023-01-19T14:18:35.654Z,25.36
2023-01-19T14:21:14.667Z,25.56
2023-01-19T14:23:51.781Z,25.45
2023-01-19T14:26:37.371Z,25.61
2023-01-19T14:29:10.054Z,25.61
2023-01-19T14:31:48.056Z,25.40
2023-01-19T14:34:34.132Z,25.67
2023-01-19T14:37:26.286Z,25.74
2023-01-19T14:40:04.818Z,25.64
2023-01-19T14:42:54.525Z,25.88
2023-01-19T14:45:23.807Z,25.72
2023-01-19T14:48:22.030Z,25.76
2023-01-19T14:51:02.449Z,25.70
2023-01-19T14:53:30.182Z,25.50
2023-01-19T14:55:59.423Z,25.17
2023-01-19T14:58:27.658Z,25.12
2023-01-19T15:00:55.902Z,24.71
2023-01-19T15:03:31.902Z,24.84
2023-01-19T15:06:20.435Z,24.85
2023-01-19T15:08:50.169Z,25.01
2023-01-19T15:11:27.868Z,24.95
2023-01-19T15:13:55.735Z,25.11
2023-01-19T15:16:23.958Z,25.18
2023-01-19T15:18:51.560Z,25.20
2023-01-19T15:21:20.153Z,24.76
2023-01-19T15:23:47.682Z,25.25
2023-01-19T15:26:18.373Z,25.35
2023-01-19T15:28:47.004Z,25.25
2023-01-19T15:31:19.814Z,24.91
2023-01-19T15:33:46.625Z,25.09
2023-01-19T15:36:18.224Z,25.19
2023-01-19T15:38:46.235Z,25.35
2023-01-19T15:41:24.646Z,25.38
2023-01-19T15:43:51.605Z,25.11
2023-01-19T15:46:21.718Z,24.89
2023-01-19T15:48:51.698Z,24.99
2023-01-19T15:51:20.059Z,24.87
2023-01-19T15:53:49.016Z,24.71
2023-01-19T15:56:27.309Z,25.35
2023-01-19T15:58:54.504Z,24.79
2023-01-19T16:01:22.775Z,24.67
2023-01-19T16:03:50.081Z,24.83
2023-01-19T16:06:18.314Z,25.22
2023-01-19T16:08:45.257Z,24.56
2023-01-19T16:11:13.676Z,25.01
2023-01-19T16:13:40.657Z,24.72
2023-01-19T16:16:21.655Z,24.50
2023-01-19T16:18:49.273Z,24.89
2023-01-19T16:21:21.410Z,24.56
2023-01-19T16:23:50.060Z,24.91
2023-01-19T16:26:28.769Z,25.17
2023-01-19T16:29:00.734Z,24.76
2023-01-19T16:31:28.313Z,25.08
2023-01-19T16:33:55.434Z,25.12
2023-01-19T16:36:27.642Z,25.14
2023-01-19T16:38:58.071Z,25.02
2023-01-19T16:41:27.429Z,25.20
2023-01-19T16:43:54.847Z,24.52
2023-01-19T16:46:25.619Z,25.19
2023-01-19T16:48:52.755Z,24.91
2023-01-19T16:51:20.132Z,25.24
2023-01-19T16:53:48.035Z,25.18
2023-01-19T16:56:15.092Z,25.17
2023-01-19T16:58:41.968Z,24.95
2023-01-19T17:01:13.034Z,25.11
2023-01-19T17:03:40.506Z,25.16
2023-01-19T17:06:11.999Z,25.06
2023-01-19T17:08:38.916Z,25.19
2023-01-19T17:11:11.613Z,24.76
2023-01-19T17:13:38.872Z,24.69
2023-01-19T17:16:09.383Z,25.20
2023-01-19T17:18:39.034Z,24.96
2023-01-19T17:21:07.729Z,24.61
2023-01-19T17:23:35.209Z,24.80
2023-01-19T17:26:02.275Z,24.93
2023-01-19T17:28:28.932Z,25.24
2023-01-19T17:31:11.070Z,25.19
2023-01-19T17:33:38.633Z,25.05
2023-01-19T17:36:09.207Z,25.06
2023-01-19T17:38:42.290Z,24.77
2023-01-19T17:41:16.939Z,24.59
2023-01-19T17:43:43.913Z,24.53
2023-01-19T17:46:11.972Z,25.20
2023-01-19T17:48:39.021Z,25.31
2023-01-19T17:51:12.821Z,24.96
2023-01-19T17:53:40.555Z,25.01
2023-01-19T17:56:10.731Z,25.24
2023-01-19T17:58:38.738Z,25.22
2023-01-19T18:01:15.137Z,24.99
2023-01-19T18:03:42.449Z,24.94
2023-01-19T18:06:09.916Z,25.34
2023-01-19T18:08:40.064Z,25.11
2023-01-19T18:11:06.943Z,25.27
2023-01-19T18:13:33.683Z,24.64
2023-01-19T18:16:01.419Z,25.04
2023-01-19T18:18:29.177Z,25.13
2023-01-19T18:21:03.093Z,25.18
2023-01-19T18:23:30.000Z,25.08
2023-01-19T18:26:03.575Z,25.34
2023-01-19T18:28:32.565Z,24.70
2023-01-19T18:30:59.903Z,25.36
2023-01-19T18:33:27.885Z,25.13
2023-01-19T18:35:54.973Z,25.24
2023-01-19T18:38:22.473Z,24.92
2023-01-19T18:40:49.341Z,25.05
2023-01-19T18:43:17.250Z,25.25
2023-01-19T18:45:45.374Z,25.13
2023-01-19T18:48:14.467Z,24.97
2023-01-19T18:50:43.057Z,25.24
2023-01-19T18:53:10.522Z,25.35
2023-01-19T18:55:39.031Z,25.08
2023-01-19T18:58:07.105Z,24.71
2023-01-19T19:00:34.048Z,25.25
2023-01-19T19:03:01.430Z,24.77
2023-01-19T19:05:28.560Z,25.28
2023-01-19T19:07:55.955Z,25.38
2023-01-19T19:10:22.791Z,25.34
2023-01-19T19:12:49.782Z,25.26
2023-01-19T19:15:16.846Z,25.02
2023-01-19T19:17:43.809Z,25.28
2023-01-19T19:20:13.665Z,25.34
2023-01-19T19:22:40.796Z,25.27
2023-01-19T19:25:08.149Z,24.64
2023-01-19T19:27:35.727Z,25.24
2023-01-19T19:30:03.635Z,25.17
2023-01-19T19:32:53.992Z,25.40
2023-01-19T19:35:21.494Z,25.39
2023-01-19T19:37:51.753Z,25.27
2023-01-19T19:40:18.600Z,25.11
2023-01-19T19:42:45.564Z,24.86
2023-01-19T19:45:15.118Z,25.35
2023-01-19T19:47:44.028Z,25.35
2023-01-19T19:50:11.999Z,25.24
2023-01-19T19:52:42.560Z,25.42
2023-01-19T19:55:10.087Z,24.87
2023-01-19T19:57:37.351Z,25.39
2023-01-19T20:00:05.304Z,25.26
2023-01-19T20:02:36.799Z,24.84
2023-01-19T20:05:04.847Z,25.15
2023-01-19T20:07:32.961Z,25.40
2023-01-19T20:10:02.812Z,25.43
2023-01-19T20:12:41.868Z,25.36
2023-01-19T20:15:09.808Z,25.32
2023-01-19T20:17:36.647Z,25.07
2023-01-19T20:20:04.420Z,25.13
2023-01-19T20:22:33.086Z,25.23
2023-01-19T20:25:01.997Z,24.96
2023-01-19T20:27:28.804Z,25.32
2023-01-19T20:29:58.104Z,25.03
2023-01-19T20:32:25.131Z,24.88
2023-01-19T20:34:53.065Z,24.73
2023-01-19T20:37:20.006Z,25.35
2023-01-19T20:39:46.948Z,25.11
2023-01-19T20:42:17.359Z,25.03
2023-01-19T20:44:44.224Z,25.05
2023-01-19T20:47:11.401Z,25.12
2023-01-19T20:49:38.340Z,25.12
2023-01-19T20:52:08.697Z,24.58
2023-01-19T20:54:38.322Z,24.79
2023-01-19T20:57:07.655Z,24.83
2023-01-19T20:59:37.237Z,24.98
2023-01-19T21:02:06.129Z,24.99
2023-01-19T21:04:33.995Z,25.18
2023-01-19T21:07:01.087Z,24.79
2023-01-19T21:09:31.232Z,24.95
2023-01-19T21:12:00.684Z,24.98
2023-01-19T21:14:30.766Z,24.85
2023-01-19T21:16:58.506Z,24.68
2023-01-19T21:19:27.150Z,24.61
2023-01-19T21:21:55.550Z,25.10
2023-01-19T21:24:22.391Z,25.15
2023-01-19T21:26:50.632Z,25.20
2023-01-19T21:29:18.547Z,25.14
2023-01-19T21:31:45.651Z,25.07
2023-01-19T21:34:14.066Z,24.76
2023-01-19T21:36:40.927Z,24.53
2023-01-19T21:39:09.170Z,25.18
2023-01-19T21:41:36.477Z,24.90
2023-01-19T21:44:04.645Z,24.77
2023-01-19T21:46:33.120Z,24.43
2023-01-19T21:49:03.343Z,24.90
2023-01-19T21:51:33.416Z,24.83
2023-01-19T21:54:02.826Z,24.23
2023-01-19T21:56:30.053Z,24.99
2023-01-19T21:58:59.496Z,24.98
2023-01-19T22:01:26.345Z,25.09
2023-01-19T22:03:54.958Z,25.04
2023-01-19T22:06:21.802Z,25.08
2023-01-19T22:08:48.583Z,25.03
2023-01-19T22:11:17.053Z,25.03
2023-01-19T22:13:43.861Z,25.00
2023-01-19T22:16:12.639Z,24.66
2023-01-19T22:18:43.288Z,24.64
2023-01-19T22:21:11.379Z,24.78
2023-01-19T22:23:38.386Z,24.73
2023-01-19T22:26:05.073Z,24.71
2023-01-19T22:28:31.953Z,24.92
